This is the latest recevied weather packets stored in our database for station/object KD8TSA. If no packets are shown the sender has not sent any weather packets the latest 10 day(s).
| Time | Temp. | Humidity | Pressure | Rain* | Wind** | Luminosity | Snow |
|---|---|---|---|---|---|---|---|
| 1777926206 | 23.33° C | 62% | 1007.3 hPa | 0 mm | - | 466 W/m² | - |
| 1777925902 | 22.78° C | 63% | 1007.3 hPa | 0 mm | - | 518 W/m² | - |
| 1777925298 | 22.22° C | 66% | 1007.9 hPa | 0 mm | - | 522 W/m² | - |
| 1777924993 | 21.67° C | 66% | 1008.1 hPa | 0 mm | - | 487 W/m² | - |
| 1777924689 | 21.11° C | 68% | 1008.2 hPa | 0 mm | - | 377 W/m² | - |
| 1777924385 | 20.56° C | 69% | 1008.1 hPa | 0 mm | - | 355 W/m² | - |
| 1777923172 | 20° C | 71% | 1008.6 hPa | 0 mm | - | 221 W/m² | - |
| 1777922267 | 20° C | 68% | 1008.5 hPa | 0 mm | - | 137 W/m² | - |
| 1777921659 | 20° C | 67% | 1008.2 hPa | 0 mm | - | 198 W/m² | - |
| 1777921355 | 20.56° C | 66% | 1008.2 hPa | 0 mm | - | 221 W/m² | - |
| 1777921052 | 20.56° C | 67% | 1007.9 hPa | 0 mm | - | 363 W/m² | - |
| 1777920749 | 21.11° C | 64% | 1007.6 hPa | 0 mm | - | 243 W/m² | - |
| 1777920141 | 21.11° C | 67% | 1007.5 hPa | 0 mm | - | 446 W/m² | - |
| 1777919837 | 21.11° C | 68% | 1007.5 hPa | 0 mm | - | 468 W/m² | - |
| 1777919534 | 21.11° C | 69% | 1007.9 hPa | 0 mm | - | 403 W/m² | - |
| 1777919232 | 21.11° C | 69% | 1008 hPa | 0 mm | - | 359 W/m² | - |
| 1777918930 | 20.56° C | 68% | 1007.9 hPa | 0 mm | - | 443 W/m² | - |
| 1777918627 | 20.56° C | 69% | 1007.9 hPa | 0 mm | - | 370 W/m² | - |
| 1777918324 | 20.56° C | 69% | 1007.6 hPa | 0 mm | - | 331 W/m² | - |
| 1777918023 | 20° C | 68% | 1007.9 hPa | 0 mm | - | 348 W/m² | - |
| 1777917721 | 20.56° C | 68% | 1007.5 hPa | 0 mm | - | 335 W/m² | - |
| 1777917418 | 20.56° C | 67% | 1007.5 hPa | 0 mm | - | 348 W/m² | - |
| 1777916206 | 20° C | 67% | 1008.1 hPa | 0 mm | - | 327 W/m² | - |
| 1777915904 | 20° C | 67% | 1007.9 hPa | 0 mm | - | 327 W/m² | - |
| 1777915600 | 19.44° C | 68% | 1007.7 hPa | 0 mm | - | 324 W/m² | - |
* Rain latest hour (hover to see other rain measurements)
** Current wind speed in m/s (hover to see current wind gust speed)